sensor_id;sensor_type;location;lat;lon;timestamp;temperature;humidity
27439;DHT22;14887;51.252;7.470;2023-12-28T00:00:15;5.30;1.00
27439;DHT22;14887;51.252;7.470;2023-12-28T00:02:41;5.30;1.00
27439;DHT22;14887;51.252;7.470;2023-12-28T00:05:06;5.20;1.00
27439;DHT22;14887;51.252;7.470;2023-12-28T00:07:32;5.20;1.00
27439;DHT22;14887;51.252;7.470;2023-12-28T00:09:57;5.20;1.00
27439;DHT22;14887;51.252;7.470;2023-12-28T00:12:23;5.20;1.00
27439;DHT22;14887;51.252;7.470;2023-12-28T00:14:49;5.20;1.00
27439;DHT22;14887;51.252;7.470;2023-12-28T00:17:14;5.20;1.00
27439;DHT22;14887;51.252;7.470;2023-12-28T00:19:40;5.20;1.00
27439;DHT22;14887;51.252;7.470;2023-12-28T00:22:05;5.10;1.00
27439;DHT22;14887;51.252;7.470;2023-12-28T00:24:31;5.10;1.00
27439;DHT22;14887;51.252;7.470;2023-12-28T00:26:56;5.20;1.00
27439;DHT22;14887;51.252;7.470;2023-12-28T00:29:22;5.20;1.00
27439;DHT22;14887;51.252;7.470;2023-12-28T00:31:47;5.20;1.00
27439;DHT22;14887;51.252;7.470;2023-12-28T00:34:13;5.20;1.00
27439;DHT22;14887;51.252;7.470;2023-12-28T00:36:38;5.20;1.00
27439;DHT22;14887;51.252;7.470;2023-12-28T00:39:04;5.20;1.00
27439;DHT22;14887;51.252;7.470;2023-12-28T00:41:29;5.20;1.00
27439;DHT22;14887;51.252;7.470;2023-12-28T00:43:55;5.20;1.00
27439;DHT22;14887;51.252;7.470;2023-12-28T00:46:20;5.20;1.00
27439;DHT22;14887;51.252;7.470;2023-12-28T00:48:46;5.20;1.00
27439;DHT22;14887;51.252;7.470;2023-12-28T00:51:12;5.20;1.00
27439;DHT22;14887;51.252;7.470;2023-12-28T00:53:37;5.20;1.00
27439;DHT22;14887;51.252;7.470;2023-12-28T00:56:03;5.20;1.00
27439;DHT22;14887;51.252;7.470;2023-12-28T00:58:28;5.20;1.00
27439;DHT22;14887;51.252;7.470;2023-12-28T01:00:54;5.20;1.00
27439;DHT22;14887;51.252;7.470;2023-12-28T01:03:22;5.20;1.00
27439;DHT22;14887;51.252;7.470;2023-12-28T01:05:48;5.10;1.00
27439;DHT22;14887;51.252;7.470;2023-12-28T01:08:16;5.20;1.00
27439;DHT22;14887;51.252;7.470;2023-12-28T01:10:42;5.20;1.00
27439;DHT22;14887;51.252;7.470;2023-12-28T01:13:08;5.20;1.00
27439;DHT22;14887;51.252;7.470;2023-12-28T01:15:34;5.30;1.00
27439;DHT22;14887;51.252;7.470;2023-12-28T01:17:59;5.30;1.00
27439;DHT22;14887;51.252;7.470;2023-12-28T01:20:25;5.30;1.00
27439;DHT22;14887;51.252;7.470;2023-12-28T01:22:50;5.30;1.00
27439;DHT22;14887;51.252;7.470;2023-12-28T01:25:16;5.40;1.00
27439;DHT22;14887;51.252;7.470;2023-12-28T01:27:41;5.40;1.00
27439;DHT22;14887;51.252;7.470;2023-12-28T01:30:07;5.40;1.00
27439;DHT22;14887;51.252;7.470;2023-12-28T01:32:33;5.40;1.00
27439;DHT22;14887;51.252;7.470;2023-12-28T01:34:59;5.50;1.00
27439;DHT22;14887;51.252;7.470;2023-12-28T01:37:24;5.50;1.00
27439;DHT22;14887;51.252;7.470;2023-12-28T01:39:50;5.50;1.00
27439;DHT22;14887;51.252;7.470;2023-12-28T01:42:15;5.60;1.00
27439;DHT22;14887;51.252;7.470;2023-12-28T01:44:41;5.60;1.00
27439;DHT22;14887;51.252;7.470;2023-12-28T01:47:06;5.60;1.00
27439;DHT22;14887;51.252;7.470;2023-12-28T01:49:33;5.60;1.00
27439;DHT22;14887;51.252;7.470;2023-12-28T01:52:01;5.70;1.00
27439;DHT22;14887;51.252;7.470;2023-12-28T01:54:27;5.70;1.00
27439;DHT22;14887;51.252;7.470;2023-12-28T01:56:54;5.70;1.00
27439;DHT22;14887;51.252;7.470;2023-12-28T01:59:20;5.70;1.00
27439;DHT22;14887;51.252;7.470;2023-12-28T02:01:46;5.80;1.00
27439;DHT22;14887;51.252;7.470;2023-12-28T02:04:11;5.80;1.00
27439;DHT22;14887;51.252;7.470;2023-12-28T02:06:38;5.80;1.00
27439;DHT22;14887;51.252;7.470;2023-12-28T02:09:03;5.80;1.00
27439;DHT22;14887;51.252;7.470;2023-12-28T02:11:29;5.90;1.00
27439;DHT22;14887;51.252;7.470;2023-12-28T02:13:54;5.90;1.00
27439;DHT22;14887;51.252;7.470;2023-12-28T02:16:32;5.90;1.00
27439;DHT22;14887;51.252;7.470;2023-12-28T02:19:02;5.90;1.00
27439;DHT22;14887;51.252;7.470;2023-12-28T02:21:30;5.90;1.00
27439;DHT22;14887;51.252;7.470;2023-12-28T02:23:56;5.90;1.00
27439;DHT22;14887;51.252;7.470;2023-12-28T02:26:22;6.00;1.00
27439;DHT22;14887;51.252;7.470;2023-12-28T02:28:48;6.00;1.00
27439;DHT22;14887;51.252;7.470;2023-12-28T02:31:37;6.00;1.00
27439;DHT22;14887;51.252;7.470;2023-12-28T02:34:09;6.00;1.00
27439;DHT22;14887;51.252;7.470;2023-12-28T02:36:38;6.10;1.00
27439;DHT22;14887;51.252;7.470;2023-12-28T02:39:06;6.10;1.00
27439;DHT22;14887;51.252;7.470;2023-12-28T02:41:33;6.10;1.00
27439;DHT22;14887;51.252;7.470;2023-12-28T02:43:58;6.10;1.00
27439;DHT22;14887;51.252;7.470;2023-12-28T02:46:24;6.20;1.00
27439;DHT22;14887;51.252;7.470;2023-12-28T02:48:50;6.20;1.00
27439;DHT22;14887;51.252;7.470;2023-12-28T02:51:15;6.20;1.00
27439;DHT22;14887;51.252;7.470;2023-12-28T02:53:41;6.20;1.00
27439;DHT22;14887;51.252;7.470;2023-12-28T02:56:07;6.30;1.00
27439;DHT22;14887;51.252;7.470;2023-12-28T02:58:33;6.30;1.00
27439;DHT22;14887;51.252;7.470;2023-12-28T03:00:59;6.30;1.00
27439;DHT22;14887;51.252;7.470;2023-12-28T03:03:24;6.30;1.00
27439;DHT22;14887;51.252;7.470;2023-12-28T03:05:50;6.30;1.00
27439;DHT22;14887;51.252;7.470;2023-12-28T03:08:15;6.30;1.00
27439;DHT22;14887;51.252;7.470;2023-12-28T03:10:41;6.30;1.00
27439;DHT22;14887;51.252;7.470;2023-12-28T03:13:06;6.30;1.00
27439;DHT22;14887;51.252;7.470;2023-12-28T03:15:33;6.30;1.00
27439;DHT22;14887;51.252;7.470;2023-12-28T03:17:58;6.30;1.00
27439;DHT22;14887;51.252;7.470;2023-12-28T03:20:24;6.30;1.00
27439;DHT22;14887;51.252;7.470;2023-12-28T03:22:50;6.30;1.00
27439;DHT22;14887;51.252;7.470;2023-12-28T03:25:15;6.30;1.00
27439;DHT22;14887;51.252;7.470;2023-12-28T03:27:41;6.40;1.00
27439;DHT22;14887;51.252;7.470;2023-12-28T03:30:07;6.30;1.00
27439;DHT22;14887;51.252;7.470;2023-12-28T03:32:32;6.30;1.00
27439;DHT22;14887;51.252;7.470;2023-12-28T03:34:58;6.30;1.00
27439;DHT22;14887;51.252;7.470;2023-12-28T03:37:24;6.40;1.00
27439;DHT22;14887;51.252;7.470;2023-12-28T03:39:49;6.40;1.00
27439;DHT22;14887;51.252;7.470;2023-12-28T03:42:15;6.40;1.00
27439;DHT22;14887;51.252;7.470;2023-12-28T03:44:40;6.40;1.00
27439;DHT22;14887;51.252;7.470;2023-12-28T03:47:06;6.40;1.00
27439;DHT22;14887;51.252;7.470;2023-12-28T03:49:32;6.30;1.00
27439;DHT22;14887;51.252;7.470;2023-12-28T03:51:57;6.30;1.00
27439;DHT22;14887;51.252;7.470;2023-12-28T03:54:23;6.20;1.00
27439;DHT22;14887;51.252;7.470;2023-12-28T03:56:49;6.20;1.00
27439;DHT22;14887;51.252;7.470;2023-12-28T03:59:14;6.20;1.00
27439;DHT22;14887;51.252;7.470;2023-12-28T04:01:40;6.20;1.00
27439;DHT22;14887;51.252;7.470;2023-12-28T04:04:06;6.20;1.00
27439;DHT22;14887;51.252;7.470;2023-12-28T04:06:32;6.20;1.00
27439;DHT22;14887;51.252;7.470;2023-12-28T04:08:57;6.20;1.00
27439;DHT22;14887;51.252;7.470;2023-12-28T04:11:23;6.20;1.00
27439;DHT22;14887;51.252;7.470;2023-12-28T04:13:49;6.20;1.00
27439;DHT22;14887;51.252;7.470;2023-12-28T04:16:15;6.20;1.00
27439;DHT22;14887;51.252;7.470;2023-12-28T04:18:41;6.20;1.00
27439;DHT22;14887;51.252;7.470;2023-12-28T04:21:11;6.20;1.00
27439;DHT22;14887;51.252;7.470;2023-12-28T04:23:38;6.20;1.00
27439;DHT22;14887;51.252;7.470;2023-12-28T04:26:04;6.20;1.00
27439;DHT22;14887;51.252;7.470;2023-12-28T04:28:30;6.20;1.00
27439;DHT22;14887;51.252;7.470;2023-12-28T04:30:55;6.10;1.00
27439;DHT22;14887;51.252;7.470;2023-12-28T04:33:21;6.20;1.00
27439;DHT22;14887;51.252;7.470;2023-12-28T04:35:46;6.10;1.00
27439;DHT22;14887;51.252;7.470;2023-12-28T04:38:12;6.10;1.00
27439;DHT22;14887;51.252;7.470;2023-12-28T04:40:38;6.10;1.00
27439;DHT22;14887;51.252;7.470;2023-12-28T04:43:04;6.10;1.00
27439;DHT22;14887;51.252;7.470;2023-12-28T04:45:29;6.00;1.00
27439;DHT22;14887;51.252;7.470;2023-12-28T04:47:55;6.00;1.00
27439;DHT22;14887;51.252;7.470;2023-12-28T04:50:20;6.00;1.00
27439;DHT22;14887;51.252;7.470;2023-12-28T04:52:46;6.00;1.00
27439;DHT22;14887;51.252;7.470;2023-12-28T04:55:11;6.00;1.00
27439;DHT22;14887;51.252;7.470;2023-12-28T04:57:37;6.00;1.00
27439;DHT22;14887;51.252;7.470;2023-12-28T05:00:03;6.00;1.00
27439;DHT22;14887;51.252;7.470;2023-12-28T05:02:29;6.00;1.00
27439;DHT22;14887;51.252;7.470;2023-12-28T05:04:55;6.00;1.00
27439;DHT22;14887;51.252;7.470;2023-12-28T05:07:20;5.90;1.00
27439;DHT22;14887;51.252;7.470;2023-12-28T05:09:46;5.90;1.00
27439;DHT22;14887;51.252;7.470;2023-12-28T05:12:12;5.90;1.00
27439;DHT22;14887;51.252;7.470;2023-12-28T05:14:37;5.90;1.00
27439;DHT22;14887;51.252;7.470;2023-12-28T05:17:03;5.90;1.00
27439;DHT22;14887;51.252;7.470;2023-12-28T05:19:29;5.90;1.00
27439;DHT22;14887;51.252;7.470;2023-12-28T05:21:54;5.90;1.00
27439;DHT22;14887;51.252;7.470;2023-12-28T05:24:20;5.90;1.00
27439;DHT22;14887;51.252;7.470;2023-12-28T05:26:46;5.90;1.00
27439;DHT22;14887;51.252;7.470;2023-12-28T05:29:11;5.90;1.00
27439;DHT22;14887;51.252;7.470;2023-12-28T05:31:37;5.90;1.00
27439;DHT22;14887;51.252;7.470;2023-12-28T05:34:02;5.90;1.00
27439;DHT22;14887;51.252;7.470;2023-12-28T05:36:28;5.90;1.00
27439;DHT22;14887;51.252;7.470;2023-12-28T05:38:54;6.00;1.00
27439;DHT22;14887;51.252;7.470;2023-12-28T05:41:19;6.00;1.00
27439;DHT22;14887;51.252;7.470;2023-12-28T05:43:45;6.00;1.00
27439;DHT22;14887;51.252;7.470;2023-12-28T05:46:10;6.00;1.00
27439;DHT22;14887;51.252;7.470;2023-12-28T05:48:36;6.00;1.00
27439;DHT22;14887;51.252;7.470;2023-12-28T05:51:02;6.00;1.00
27439;DHT22;14887;51.252;7.470;2023-12-28T05:53:27;6.00;1.00
27439;DHT22;14887;51.252;7.470;2023-12-28T05:55:54;6.00;1.00
27439;DHT22;14887;51.252;7.470;2023-12-28T05:58:20;6.00;1.00
27439;DHT22;14887;51.252;7.470;2023-12-28T06:00:45;6.00;1.00
27439;DHT22;14887;51.252;7.470;2023-12-28T06:03:14;5.90;1.00
27439;DHT22;14887;51.252;7.470;2023-12-28T06:05:40;6.00;1.00
27439;DHT22;14887;51.252;7.470;2023-12-28T06:08:06;6.00;1.00
27439;DHT22;14887;51.252;7.470;2023-12-28T06:10:31;6.00;1.00
27439;DHT22;14887;51.252;7.470;2023-12-28T06:12:57;6.00;1.00
27439;DHT22;14887;51.252;7.470;2023-12-28T06:15:23;6.10;1.00
27439;DHT22;14887;51.252;7.470;2023-12-28T06:17:48;6.10;1.00
27439;DHT22;14887;51.252;7.470;2023-12-28T06:20:14;6.10;1.00
27439;DHT22;14887;51.252;7.470;2023-12-28T06:22:39;6.10;1.00
27439;DHT22;14887;51.252;7.470;2023-12-28T06:25:05;6.10;1.00
27439;DHT22;14887;51.252;7.470;2023-12-28T06:27:31;6.00;1.00
27439;DHT22;14887;51.252;7.470;2023-12-28T06:29:57;6.10;1.00
27439;DHT22;14887;51.252;7.470;2023-12-28T06:32:22;6.10;1.00
27439;DHT22;14887;51.252;7.470;2023-12-28T06:34:48;6.10;1.00
27439;DHT22;14887;51.252;7.470;2023-12-28T06:37:14;6.10;1.00
27439;DHT22;14887;51.252;7.470;2023-12-28T06:39:39;6.10;1.00
27439;DHT22;14887;51.252;7.470;2023-12-28T06:42:05;6.10;1.00
27439;DHT22;14887;51.252;7.470;2023-12-28T06:44:31;6.10;1.00
27439;DHT22;14887;51.252;7.470;2023-12-28T06:46:56;6.10;1.00
27439;DHT22;14887;51.252;7.470;2023-12-28T06:49:22;6.10;1.00
27439;DHT22;14887;51.252;7.470;2023-12-28T06:51:47;6.20;1.00
27439;DHT22;14887;51.252;7.470;2023-12-28T06:54:16;6.00;1.00
27439;DHT22;14887;51.252;7.470;2023-12-28T06:56:41;6.00;1.00
27439;DHT22;14887;51.252;7.470;2023-12-28T06:59:07;6.00;1.00
27439;DHT22;14887;51.252;7.470;2023-12-28T07:01:37;6.00;1.00
27439;DHT22;14887;51.252;7.470;2023-12-28T07:04:03;6.00;1.00
27439;DHT22;14887;51.252;7.470;2023-12-28T07:06:28;6.00;1.00
27439;DHT22;14887;51.252;7.470;2023-12-28T07:08:54;5.90;1.00
27439;DHT22;14887;51.252;7.470;2023-12-28T07:11:19;5.90;1.00
27439;DHT22;14887;51.252;7.470;2023-12-28T07:13:45;5.90;1.00
27439;DHT22;14887;51.252;7.470;2023-12-28T07:16:10;6.00;1.00
27439;DHT22;14887;51.252;7.470;2023-12-28T07:18:36;5.90;1.00
27439;DHT22;14887;51.252;7.470;2023-12-28T07:21:02;5.90;1.00
27439;DHT22;14887;51.252;7.470;2023-12-28T07:23:28;5.90;1.00
27439;DHT22;14887;51.252;7.470;2023-12-28T07:25:53;5.90;1.00
27439;DHT22;14887;51.252;7.470;2023-12-28T07:28:19;5.80;1.00
27439;DHT22;14887;51.252;7.470;2023-12-28T07:30:44;5.80;1.00
27439;DHT22;14887;51.252;7.470;2023-12-28T07:33:10;5.80;1.00
27439;DHT22;14887;51.252;7.470;2023-12-28T07:35:35;5.80;1.00
27439;DHT22;14887;51.252;7.470;2023-12-28T07:38:01;5.90;1.00
27439;DHT22;14887;51.252;7.470;2023-12-28T07:40:27;5.80;1.00
27439;DHT22;14887;51.252;7.470;2023-12-28T07:42:53;6.00;1.00
27439;DHT22;14887;51.252;7.470;2023-12-28T07:45:18;5.90;1.00
27439;DHT22;14887;51.252;7.470;2023-12-28T07:47:49;5.90;1.00
27439;DHT22;14887;51.252;7.470;2023-12-28T07:50:15;5.90;1.00
27439;DHT22;14887;51.252;7.470;2023-12-28T07:52:42;6.00;1.00
27439;DHT22;14887;51.252;7.470;2023-12-28T07:55:08;6.10;1.00
27439;DHT22;14887;51.252;7.470;2023-12-28T07:57:34;6.10;1.00
27439;DHT22;14887;51.252;7.470;2023-12-28T08:00:01;6.10;1.00
27439;DHT22;14887;51.252;7.470;2023-12-28T08:02:26;6.10;1.00
27439;DHT22;14887;51.252;7.470;2023-12-28T08:04:53;6.20;1.00
27439;DHT22;14887;51.252;7.470;2023-12-28T08:07:18;6.20;1.00
27439;DHT22;14887;51.252;7.470;2023-12-28T08:09:44;6.20;1.00
27439;DHT22;14887;51.252;7.470;2023-12-28T08:12:09;6.30;1.00
27439;DHT22;14887;51.252;7.470;2023-12-28T08:14:35;6.20;1.00
27439;DHT22;14887;51.252;7.470;2023-12-28T08:17:01;6.20;1.00
27439;DHT22;14887;51.252;7.470;2023-12-28T08:19:26;6.20;1.00
27439;DHT22;14887;51.252;7.470;2023-12-28T08:21:52;6.20;1.00
27439;DHT22;14887;51.252;7.470;2023-12-28T08:24:17;6.20;1.00
27439;DHT22;14887;51.252;7.470;2023-12-28T08:26:43;6.20;1.00
27439;DHT22;14887;51.252;7.470;2023-12-28T08:29:08;6.20;1.00
27439;DHT22;14887;51.252;7.470;2023-12-28T08:31:34;6.20;1.00
27439;DHT22;14887;51.252;7.470;2023-12-28T08:33:59;6.20;1.00
27439;DHT22;14887;51.252;7.470;2023-12-28T08:36:25;6.20;1.00
27439;DHT22;14887;51.252;7.470;2023-12-28T08:38:50;6.10;1.00
27439;DHT22;14887;51.252;7.470;2023-12-28T08:41:23;6.10;1.00
27439;DHT22;14887;51.252;7.470;2023-12-28T08:43:52;6.10;1.00
27439;DHT22;14887;51.252;7.470;2023-12-28T08:46:22;6.20;1.00
27439;DHT22;14887;51.252;7.470;2023-12-28T08:48:49;6.20;1.00
27439;DHT22;14887;51.252;7.470;2023-12-28T08:51:15;6.20;1.00
27439;DHT22;14887;51.252;7.470;2023-12-28T08:53:41;6.30;1.00
27439;DHT22;14887;51.252;7.470;2023-12-28T08:56:15;6.40;1.00
27439;DHT22;14887;51.252;7.470;2023-12-28T08:58:41;6.50;1.00
27439;DHT22;14887;51.252;7.470;2023-12-28T09:01:07;6.50;1.00
27439;DHT22;14887;51.252;7.470;2023-12-28T09:03:32;6.50;1.00
27439;DHT22;14887;51.252;7.470;2023-12-28T09:05:58;6.60;1.00
27439;DHT22;14887;51.252;7.470;2023-12-28T09:08:23;6.70;1.00
27439;DHT22;14887;51.252;7.470;2023-12-28T09:10:49;6.70;1.00
27439;DHT22;14887;51.252;7.470;2023-12-28T09:13:15;6.70;1.00
27439;DHT22;14887;51.252;7.470;2023-12-28T09:15:42;6.80;1.00
27439;DHT22;14887;51.252;7.470;2023-12-28T09:18:08;6.80;1.00
27439;DHT22;14887;51.252;7.470;2023-12-28T09:20:33;6.80;1.00
27439;DHT22;14887;51.252;7.470;2023-12-28T09:23:01;6.80;1.00
27439;DHT22;14887;51.252;7.470;2023-12-28T09:25:26;6.80;1.00
27439;DHT22;14887;51.252;7.470;2023-12-28T09:27:52;6.90;1.00
27439;DHT22;14887;51.252;7.470;2023-12-28T09:30:19;7.00;1.00
27439;DHT22;14887;51.252;7.470;2023-12-28T09:32:44;7.00;1.00
27439;DHT22;14887;51.252;7.470;2023-12-28T09:35:10;7.00;1.00
27439;DHT22;14887;51.252;7.470;2023-12-28T09:37:35;7.10;1.00
27439;DHT22;14887;51.252;7.470;2023-12-28T09:40:01;7.10;1.00
27439;DHT22;14887;51.252;7.470;2023-12-28T09:42:31;7.10;1.00
27439;DHT22;14887;51.252;7.470;2023-12-28T09:44:57;7.10;1.00
27439;DHT22;14887;51.252;7.470;2023-12-28T09:47:23;7.10;1.00
27439;DHT22;14887;51.252;7.470;2023-12-28T09:49:48;7.20;1.00
27439;DHT22;14887;51.252;7.470;2023-12-28T09:52:14;7.20;1.00
27439;DHT22;14887;51.252;7.470;2023-12-28T09:54:40;7.20;1.00
27439;DHT22;14887;51.252;7.470;2023-12-28T09:57:05;7.20;1.00
27439;DHT22;14887;51.252;7.470;2023-12-28T09:59:32;7.20;1.00
27439;DHT22;14887;51.252;7.470;2023-12-28T10:02:00;7.30;1.00
27439;DHT22;14887;51.252;7.470;2023-12-28T10:04:28;7.30;1.00
27439;DHT22;14887;51.252;7.470;2023-12-28T10:06:54;7.40;1.00
27439;DHT22;14887;51.252;7.470;2023-12-28T10:09:21;7.40;1.00
27439;DHT22;14887;51.252;7.470;2023-12-28T10:11:47;7.50;1.00
27439;DHT22;14887;51.252;7.470;2023-12-28T10:14:13;7.50;1.00
27439;DHT22;14887;51.252;7.470;2023-12-28T10:16:42;7.60;1.00
27439;DHT22;14887;51.252;7.470;2023-12-28T10:19:08;7.70;1.00
27439;DHT22;14887;51.252;7.470;2023-12-28T10:21:33;7.80;1.00
27439;DHT22;14887;51.252;7.470;2023-12-28T10:23:59;7.80;99.90
27439;DHT22;14887;51.252;7.470;2023-12-28T10:26:25;7.90;99.90
27439;DHT22;14887;51.252;7.470;2023-12-28T10:28:56;7.90;99.90
27439;DHT22;14887;51.252;7.470;2023-12-28T10:31:21;7.90;99.90
27439;DHT22;14887;51.252;7.470;2023-12-28T10:33:48;7.90;99.90
27439;DHT22;14887;51.252;7.470;2023-12-28T10:36:15;7.90;99.90
27439;DHT22;14887;51.252;7.470;2023-12-28T10:38:43;7.80;99.90
27439;DHT22;14887;51.252;7.470;2023-12-28T10:41:10;7.80;99.90
27439;DHT22;14887;51.252;7.470;2023-12-28T10:43:45;7.80;99.90
27439;DHT22;14887;51.252;7.470;2023-12-28T10:46:25;7.80;99.90
27439;DHT22;14887;51.252;7.470;2023-12-28T10:49:00;7.80;99.90
27439;DHT22;14887;51.252;7.470;2023-12-28T10:51:26;7.80;99.90
27439;DHT22;14887;51.252;7.470;2023-12-28T10:56:36;7.90;99.90
27439;DHT22;14887;51.252;7.470;2023-12-28T10:59:17;7.90;99.90
27439;DHT22;14887;51.252;7.470;2023-12-28T11:01:49;7.90;99.90
27439;DHT22;14887;51.252;7.470;2023-12-28T11:04:40;8.10;99.90
27439;DHT22;14887;51.252;7.470;2023-12-28T11:07:10;8.00;99.90
27439;DHT22;14887;51.252;7.470;2023-12-28T11:09:41;8.10;99.90
27439;DHT22;14887;51.252;7.470;2023-12-28T11:12:07;8.20;99.90
27439;DHT22;14887;51.252;7.470;2023-12-28T11:14:34;8.20;99.90
27439;DHT22;14887;51.252;7.470;2023-12-28T11:17:00;8.30;99.90
27439;DHT22;14887;51.252;7.470;2023-12-28T11:19:29;8.30;99.90
27439;DHT22;14887;51.252;7.470;2023-12-28T11:21:55;8.40;99.90
27439;DHT22;14887;51.252;7.470;2023-12-28T11:24:23;8.40;88.40
27439;DHT22;14887;51.252;7.470;2023-12-28T11:26:52;8.50;51.40
27439;DHT22;14887;51.252;7.470;2023-12-28T11:29:20;8.40;91.10
27439;DHT22;14887;51.252;7.470;2023-12-28T11:31:51;8.50;17.90
27439;DHT22;14887;51.252;7.470;2023-12-28T11:34:17;8.50;53.70
27439;DHT22;14887;51.252;7.470;2023-12-28T11:36:54;8.60;89.90
27439;DHT22;14887;51.252;7.470;2023-12-28T11:39:33;8.60;82.40
27439;DHT22;14887;51.252;7.470;2023-12-28T11:42:08;8.60;46.50
27439;DHT22;14887;51.252;7.470;2023-12-28T11:44:42;8.60;98.40
27439;DHT22;14887;51.252;7.470;2023-12-28T11:47:16;8.60;27.30
27439;DHT22;14887;51.252;7.470;2023-12-28T11:49:42;8.50;1.00
27439;DHT22;14887;51.252;7.470;2023-12-28T11:52:21;8.50;1.00
27439;DHT22;14887;51.252;7.470;2023-12-28T11:54:49;8.50;1.00
27439;DHT22;14887;51.252;7.470;2023-12-28T11:57:16;8.50;1.00
27439;DHT22;14887;51.252;7.470;2023-12-28T11:59:41;8.60;1.00
27439;DHT22;14887;51.252;7.470;2023-12-28T12:02:07;8.70;1.00
27439;DHT22;14887;51.252;7.470;2023-12-28T12:04:34;8.80;1.00
27439;DHT22;14887;51.252;7.470;2023-12-28T12:07:04;8.80;1.00
27439;DHT22;14887;51.252;7.470;2023-12-28T12:09:30;8.90;1.00
27439;DHT22;14887;51.252;7.470;2023-12-28T12:12:00;8.90;1.00
27439;DHT22;14887;51.252;7.470;2023-12-28T12:14:26;8.90;1.00
27439;DHT22;14887;51.252;7.470;2023-12-28T12:16:52;9.10;1.00
27439;DHT22;14887;51.252;7.470;2023-12-28T12:19:18;9.00;1.00
27439;DHT22;14887;51.252;7.470;2023-12-28T12:21:43;8.90;1.00
27439;DHT22;14887;51.252;7.470;2023-12-28T12:24:10;8.90;99.90
27439;DHT22;14887;51.252;7.470;2023-12-28T12:26:35;9.00;1.00
27439;DHT22;14887;51.252;7.470;2023-12-28T12:29:01;9.00;99.90
27439;DHT22;14887;51.252;7.470;2023-12-28T12:31:28;8.90;1.00
27439;DHT22;14887;51.252;7.470;2023-12-28T12:33:53;9.00;99.90
27439;DHT22;14887;51.252;7.470;2023-12-28T12:36:19;9.00;99.90
27439;DHT22;14887;51.252;7.470;2023-12-28T12:38:46;9.00;99.90
27439;DHT22;14887;51.252;7.470;2023-12-28T12:41:12;9.00;99.90
27439;DHT22;14887;51.252;7.470;2023-12-28T12:43:39;9.00;99.90
27439;DHT22;14887;51.252;7.470;2023-12-28T12:46:06;8.90;99.90
27439;DHT22;14887;51.252;7.470;2023-12-28T12:48:32;8.90;99.90
27439;DHT22;14887;51.252;7.470;2023-12-28T12:50:57;8.90;99.90
27439;DHT22;14887;51.252;7.470;2023-12-28T12:53:23;8.90;99.90
27439;DHT22;14887;51.252;7.470;2023-12-28T12:55:54;9.00;99.90
27439;DHT22;14887;51.252;7.470;2023-12-28T12:58:20;9.00;99.90
27439;DHT22;14887;51.252;7.470;2023-12-28T13:00:46;9.00;99.90
27439;DHT22;14887;51.252;7.470;2023-12-28T13:03:12;9.00;99.90
27439;DHT22;14887;51.252;7.470;2023-12-28T13:05:37;8.90;99.90
27439;DHT22;14887;51.252;7.470;2023-12-28T13:08:04;8.90;99.90
27439;DHT22;14887;51.252;7.470;2023-12-28T13:10:31;8.90;99.90
27439;DHT22;14887;51.252;7.470;2023-12-28T13:12:56;8.90;99.90
27439;DHT22;14887;51.252;7.470;2023-12-28T13:15:22;8.90;99.90
27439;DHT22;14887;51.252;7.470;2023-12-28T13:17:47;8.90;99.90
27439;DHT22;14887;51.252;7.470;2023-12-28T13:20:13;8.90;99.90
27439;DHT22;14887;51.252;7.470;2023-12-28T13:22:39;8.90;99.90
27439;DHT22;14887;51.252;7.470;2023-12-28T13:25:05;8.90;99.90
27439;DHT22;14887;51.252;7.470;2023-12-28T13:27:31;8.90;99.90
27439;DHT22;14887;51.252;7.470;2023-12-28T13:29:57;8.90;99.90
27439;DHT22;14887;51.252;7.470;2023-12-28T13:32:23;8.80;99.90
27439;DHT22;14887;51.252;7.470;2023-12-28T13:34:49;8.70;99.90
27439;DHT22;14887;51.252;7.470;2023-12-28T13:37:16;8.70;99.90
27439;DHT22;14887;51.252;7.470;2023-12-28T13:39:42;8.70;99.90
27439;DHT22;14887;51.252;7.470;2023-12-28T13:42:07;8.70;99.90
27439;DHT22;14887;51.252;7.470;2023-12-28T13:44:34;8.70;99.90
27439;DHT22;14887;51.252;7.470;2023-12-28T13:47:04;8.60;99.90
27439;DHT22;14887;51.252;7.470;2023-12-28T13:49:31;8.70;99.90
27439;DHT22;14887;51.252;7.470;2023-12-28T13:51:57;8.60;99.90
27439;DHT22;14887;51.252;7.470;2023-12-28T13:54:23;8.60;99.90
27439;DHT22;14887;51.252;7.470;2023-12-28T13:56:49;8.50;99.90
27439;DHT22;14887;51.252;7.470;2023-12-28T13:59:15;8.50;99.90
27439;DHT22;14887;51.252;7.470;2023-12-28T14:01:41;8.40;99.90
27439;DHT22;14887;51.252;7.470;2023-12-28T14:04:06;8.40;99.90
27439;DHT22;14887;51.252;7.470;2023-12-28T14:06:32;8.40;99.90
27439;DHT22;14887;51.252;7.470;2023-12-28T14:08:58;8.30;99.90
27439;DHT22;14887;51.252;7.470;2023-12-28T14:11:24;8.30;1.00
27439;DHT22;14887;51.252;7.470;2023-12-28T14:13:50;8.30;99.90
27439;DHT22;14887;51.252;7.470;2023-12-28T14:16:15;8.30;99.90
27439;DHT22;14887;51.252;7.470;2023-12-28T14:18:41;8.30;99.90
27439;DHT22;14887;51.252;7.470;2023-12-28T14:21:08;8.20;99.90
27439;DHT22;14887;51.252;7.470;2023-12-28T14:23:35;8.20;99.90
27439;DHT22;14887;51.252;7.470;2023-12-28T14:26:03;8.20;1.00
27439;DHT22;14887;51.252;7.470;2023-12-28T14:28:30;8.10;1.00
27439;DHT22;14887;51.252;7.470;2023-12-28T14:30:59;8.10;1.00
27439;DHT22;14887;51.252;7.470;2023-12-28T14:33:25;8.00;1.00
27439;DHT22;14887;51.252;7.470;2023-12-28T14:35:51;8.00;1.00
27439;DHT22;14887;51.252;7.470;2023-12-28T14:38:16;8.00;1.00
27439;DHT22;14887;51.252;7.470;2023-12-28T14:40:42;7.90;1.00
27439;DHT22;14887;51.252;7.470;2023-12-28T14:43:07;7.90;1.00
27439;DHT22;14887;51.252;7.470;2023-12-28T14:45:33;7.80;1.00
27439;DHT22;14887;51.252;7.470;2023-12-28T14:47:59;7.80;1.00
27439;DHT22;14887;51.252;7.470;2023-12-28T14:50:24;7.80;1.00
27439;DHT22;14887;51.252;7.470;2023-12-28T14:52:50;7.80;1.00
27439;DHT22;14887;51.252;7.470;2023-12-28T14:55:15;7.70;1.00
27439;DHT22;14887;51.252;7.470;2023-12-28T14:57:41;7.70;1.00
27439;DHT22;14887;51.252;7.470;2023-12-28T15:00:07;7.60;1.00
27439;DHT22;14887;51.252;7.470;2023-12-28T15:02:32;7.60;1.00
27439;DHT22;14887;51.252;7.470;2023-12-28T15:04:58;7.50;1.00
27439;DHT22;14887;51.252;7.470;2023-12-28T15:07:25;7.50;1.00
27439;DHT22;14887;51.252;7.470;2023-12-28T15:09:51;7.40;1.00
27439;DHT22;14887;51.252;7.470;2023-12-28T15:12:21;7.40;1.00
27439;DHT22;14887;51.252;7.470;2023-12-28T15:14:47;7.40;1.00
27439;DHT22;14887;51.252;7.470;2023-12-28T15:17:13;7.30;1.00
27439;DHT22;14887;51.252;7.470;2023-12-28T15:19:39;7.30;1.00
27439;DHT22;14887;51.252;7.470;2023-12-28T15:22:05;7.30;1.00
27439;DHT22;14887;51.252;7.470;2023-12-28T15:24:31;7.30;1.00
27439;DHT22;14887;51.252;7.470;2023-12-28T15:26:56;7.20;4.40
27439;DHT22;14887;51.252;7.470;2023-12-28T15:29:22;7.20;8.10
27439;DHT22;14887;51.252;7.470;2023-12-28T15:31:48;7.20;28.70
27439;DHT22;14887;51.252;7.470;2023-12-28T15:34:13;7.10;58.20
27439;DHT22;14887;51.252;7.470;2023-12-28T15:36:39;7.10;65.90
27439;DHT22;14887;51.252;7.470;2023-12-28T15:39:05;7.10;39.30
27439;DHT22;14887;51.252;7.470;2023-12-28T15:41:31;7.10;41.40
27439;DHT22;14887;51.252;7.470;2023-12-28T15:43:57;7.10;10.50
27439;DHT22;14887;51.252;7.470;2023-12-28T15:46:23;7.10;31.70
27439;DHT22;14887;51.252;7.470;2023-12-28T15:48:48;7.10;20.90
27439;DHT22;14887;51.252;7.470;2023-12-28T15:51:14;7.10;30.90
27439;DHT22;14887;51.252;7.470;2023-12-28T15:53:40;7.20;10.80